Aberdeen, Maryland
Current Conditions -  °F | °C
As of 7:55 PM on Wednesday 17 Dec 2014 (Local Time) from KAPG Reporting Station
Clear Clear  
Wind Chill: 41°   Ceiling: Unl
Heat Index: 41°   Visibility: 7mi
Dew Point: 28°   Wind: 0mph
Humidity: 61%   Direction: NA
Pressure: 30.03"   Gusts: NA
Location:  39.51°N, 76.16°W
Report Text: KAPG 180055Z 00000KT 7SM SKC 05/M02 A3003 RMK LAST
Loading
Personal Weather Stations






























Interactive Weather Map New forecast layout! Learn more

10-Day Weather Forecast

Advertisements
Track Severe Weather on mobile